sensor_id;sensor_type;location;lat;lon;timestamp;P1;durP1;ratioP1;P2;durP2;ratioP2
79631;SDS011;69108;41.120;16.874;2023-12-20T00:00:30;39.55;;;13.98;;
79631;SDS011;69108;41.120;16.874;2023-12-20T00:02:58;38.45;;;14.00;;
79631;SDS011;69108;41.120;16.874;2023-12-20T00:05:25;45.95;;;16.83;;
79631;SDS011;69108;41.120;16.874;2023-12-20T00:07:52;45.05;;;16.65;;
79631;SDS011;69108;41.120;16.874;2023-12-20T00:10:19;48.38;;;19.58;;
79631;SDS011;69108;41.120;16.874;2023-12-20T00:12:46;43.83;;;16.83;;
79631;SDS011;69108;41.120;16.874;2023-12-20T00:15:12;50.65;;;20.35;;
79631;SDS011;69108;41.120;16.874;2023-12-20T00:17:41;52.83;;;20.95;;
79631;SDS011;69108;41.120;16.874;2023-12-20T00:22:34;49.40;;;18.13;;
79631;SDS011;69108;41.120;16.874;2023-12-20T00:25:01;57.28;;;19.75;;
79631;SDS011;69108;41.120;16.874;2023-12-20T00:27:28;51.25;;;19.40;;
79631;SDS011;69108;41.120;16.874;2023-12-20T00:29:55;49.92;;;17.75;;
79631;SDS011;69108;41.120;16.874;2023-12-20T00:32:22;51.88;;;19.05;;
79631;SDS011;69108;41.120;16.874;2023-12-20T00:34:50;50.70;;;18.63;;
79631;SDS011;69108;41.120;16.874;2023-12-20T00:42:09;46.78;;;16.20;;
79631;SDS011;69108;41.120;16.874;2023-12-20T00:44:36;36.05;;;13.77;;
79631;SDS011;69108;41.120;16.874;2023-12-20T00:47:03;32.78;;;13.43;;
79631;SDS011;69108;41.120;16.874;2023-12-20T00:49:30;35.40;;;12.35;;
79631;SDS011;69108;41.120;16.874;2023-12-20T00:51:58;30.77;;;13.00;;
79631;SDS011;69108;41.120;16.874;2023-12-20T00:54:25;31.85;;;12.30;;
79631;SDS011;69108;41.120;16.874;2023-12-20T00:56:52;29.60;;;11.27;;
79631;SDS011;69108;41.120;16.874;2023-12-20T00:59:19;33.13;;;11.63;;
79631;SDS011;69108;41.120;16.874;2023-12-20T01:01:45;32.60;;;12.25;;
79631;SDS011;69108;41.120;16.874;2023-12-20T01:04:12;32.63;;;13.35;;
79631;SDS011;69108;41.120;16.874;2023-12-20T01:06:39;41.08;;;15.07;;
79631;SDS011;69108;41.120;16.874;2023-12-20T01:09:07;36.92;;;14.02;;
79631;SDS011;69108;41.120;16.874;2023-12-20T01:11:34;37.28;;;14.32;;
79631;SDS011;69108;41.120;16.874;2023-12-20T01:14:01;44.53;;;15.50;;
79631;SDS011;69108;41.120;16.874;2023-12-20T01:16:27;37.28;;;14.75;;
79631;SDS011;69108;41.120;16.874;2023-12-20T01:18:54;39.22;;;14.45;;
79631;SDS011;69108;41.120;16.874;2023-12-20T01:21:21;38.17;;;14.88;;
79631;SDS011;69108;41.120;16.874;2023-12-20T01:23:47;42.35;;;15.82;;
79631;SDS011;69108;41.120;16.874;2023-12-20T01:26:16;42.88;;;16.40;;
79631;SDS011;69108;41.120;16.874;2023-12-20T01:28:42;43.40;;;17.60;;
79631;SDS011;69108;41.120;16.874;2023-12-20T01:31:09;48.20;;;17.35;;
79631;SDS011;69108;41.120;16.874;2023-12-20T01:33:36;43.13;;;17.23;;
79631;SDS011;69108;41.120;16.874;2023-12-20T01:36:03;39.33;;;16.20;;
79631;SDS011;69108;41.120;16.874;2023-12-20T01:38:30;44.70;;;18.15;;
79631;SDS011;69108;41.120;16.874;2023-12-20T01:40:57;47.25;;;15.85;;
79631;SDS011;69108;41.120;16.874;2023-12-20T01:43:25;40.13;;;15.88;;
79631;SDS011;69108;41.120;16.874;2023-12-20T01:45:52;42.25;;;16.15;;
79631;SDS011;69108;41.120;16.874;2023-12-20T01:48:19;42.88;;;16.45;;
79631;SDS011;69108;41.120;16.874;2023-12-20T01:50:46;46.95;;;15.73;;
79631;SDS011;69108;41.120;16.874;2023-12-20T01:53:13;37.80;;;14.88;;
79631;SDS011;69108;41.120;16.874;2023-12-20T01:55:41;39.67;;;14.52;;
79631;SDS011;69108;41.120;16.874;2023-12-20T01:58:08;33.17;;;13.73;;
79631;SDS011;69108;41.120;16.874;2023-12-20T02:00:37;29.52;;;12.98;;
79631;SDS011;69108;41.120;16.874;2023-12-20T02:03:04;34.60;;;14.98;;
79631;SDS011;69108;41.120;16.874;2023-12-20T02:05:32;35.15;;;13.65;;
79631;SDS011;69108;41.120;16.874;2023-12-20T02:07:59;27.75;;;12.45;;
79631;SDS011;69108;41.120;16.874;2023-12-20T02:10:26;28.10;;;11.60;;
79631;SDS011;69108;41.120;16.874;2023-12-20T02:12:54;25.33;;;10.40;;
79631;SDS011;69108;41.120;16.874;2023-12-20T02:15:21;26.77;;;10.95;;
79631;SDS011;69108;41.120;16.874;2023-12-20T02:17:49;22.90;;;10.27;;
79631;SDS011;69108;41.120;16.874;2023-12-20T02:20:16;22.10;;;9.77;;
79631;SDS011;69108;41.120;16.874;2023-12-20T02:22:45;21.80;;;9.80;;
79631;SDS011;69108;41.120;16.874;2023-12-20T02:25:11;19.95;;;9.68;;
79631;SDS011;69108;41.120;16.874;2023-12-20T02:27:38;17.30;;;8.30;;
79631;SDS011;69108;41.120;16.874;2023-12-20T02:30:06;18.95;;;9.10;;
79631;SDS011;69108;41.120;16.874;2023-12-20T02:32:33;19.55;;;9.50;;
79631;SDS011;69108;41.120;16.874;2023-12-20T02:34:59;17.50;;;8.02;;
79631;SDS011;69108;41.120;16.874;2023-12-20T02:37:26;15.85;;;7.78;;
79631;SDS011;69108;41.120;16.874;2023-12-20T02:39:54;17.10;;;7.55;;
79631;SDS011;69108;41.120;16.874;2023-12-20T02:42:21;18.02;;;7.97;;
79631;SDS011;69108;41.120;16.874;2023-12-20T02:44:48;14.65;;;7.38;;
79631;SDS011;69108;41.120;16.874;2023-12-20T02:47:15;18.10;;;7.28;;
79631;SDS011;69108;41.120;16.874;2023-12-20T02:49:41;14.73;;;7.32;;
79631;SDS011;69108;41.120;16.874;2023-12-20T02:52:08;15.18;;;6.90;;
79631;SDS011;69108;41.120;16.874;2023-12-20T02:54:35;14.93;;;6.82;;
79631;SDS011;69108;41.120;16.874;2023-12-20T02:57:03;11.25;;;5.65;;
79631;SDS011;69108;41.120;16.874;2023-12-20T02:59:30;14.32;;;6.32;;
79631;SDS011;69108;41.120;16.874;2023-12-20T03:01:57;13.30;;;6.70;;
79631;SDS011;69108;41.120;16.874;2023-12-20T03:04:24;11.73;;;6.35;;
79631;SDS011;69108;41.120;16.874;2023-12-20T03:06:50;11.85;;;6.05;;
79631;SDS011;69108;41.120;16.874;2023-12-20T03:09:17;13.18;;;5.88;;
79631;SDS011;69108;41.120;16.874;2023-12-20T03:11:44;10.75;;;5.90;;
79631;SDS011;69108;41.120;16.874;2023-12-20T03:14:12;11.05;;;5.53;;
79631;SDS011;69108;41.120;16.874;2023-12-20T03:16:39;10.05;;;5.60;;
79631;SDS011;69108;41.120;16.874;2023-12-20T03:19:06;11.00;;;5.22;;
79631;SDS011;69108;41.120;16.874;2023-12-20T03:21:32;10.13;;;5.88;;
79631;SDS011;69108;41.120;16.874;2023-12-20T03:23:59;11.48;;;5.60;;
79631;SDS011;69108;41.120;16.874;2023-12-20T03:26:26;12.73;;;6.22;;
79631;SDS011;69108;41.120;16.874;2023-12-20T03:28:53;12.10;;;5.72;;
79631;SDS011;69108;41.120;16.874;2023-12-20T03:31:21;12.27;;;5.90;;
79631;SDS011;69108;41.120;16.874;2023-12-20T03:36:16;14.15;;;6.75;;
79631;SDS011;69108;41.120;16.874;2023-12-20T03:38:42;12.15;;;6.10;;
79631;SDS011;69108;41.120;16.874;2023-12-20T03:41:09;12.48;;;6.32;;
79631;SDS011;69108;41.120;16.874;2023-12-20T03:43:36;13.50;;;6.03;;
79631;SDS011;69108;41.120;16.874;2023-12-20T03:46:03;11.43;;;6.13;;
79631;SDS011;69108;41.120;16.874;2023-12-20T03:48:31;12.35;;;6.07;;
79631;SDS011;69108;41.120;16.874;2023-12-20T03:50:58;11.68;;;6.30;;
79631;SDS011;69108;41.120;16.874;2023-12-20T03:53:25;12.90;;;6.72;;
79631;SDS011;69108;41.120;16.874;2023-12-20T03:55:51;13.07;;;7.30;;
79631;SDS011;69108;41.120;16.874;2023-12-20T03:58:18;13.35;;;7.00;;
79631;SDS011;69108;41.120;16.874;2023-12-20T04:00:45;14.88;;;7.07;;
79631;SDS011;69108;41.120;16.874;2023-12-20T04:03:11;11.93;;;7.22;;
79631;SDS011;69108;41.120;16.874;2023-12-20T04:05:40;17.35;;;7.82;;
79631;SDS011;69108;41.120;16.874;2023-12-20T04:08:07;12.23;;;6.45;;
79631;SDS011;69108;41.120;16.874;2023-12-20T04:10:35;12.75;;;6.65;;
79631;SDS011;69108;41.120;16.874;2023-12-20T04:13:02;15.13;;;7.53;;
79631;SDS011;69108;41.120;16.874;2023-12-20T04:15:29;14.73;;;7.45;;
79631;SDS011;69108;41.120;16.874;2023-12-20T04:17:56;12.20;;;6.57;;
79631;SDS011;69108;41.120;16.874;2023-12-20T04:20:23;14.43;;;7.10;;
79631;SDS011;69108;41.120;16.874;2023-12-20T04:22:51;15.30;;;6.72;;
79631;SDS011;69108;41.120;16.874;2023-12-20T04:27:44;14.57;;;7.50;;
79631;SDS011;69108;41.120;16.874;2023-12-20T04:30:11;16.42;;;7.53;;
79631;SDS011;69108;41.120;16.874;2023-12-20T04:32:38;13.82;;;6.85;;
79631;SDS011;69108;41.120;16.874;2023-12-20T04:35:05;15.70;;;8.13;;
79631;SDS011;69108;41.120;16.874;2023-12-20T04:37:32;18.00;;;7.82;;
79631;SDS011;69108;41.120;16.874;2023-12-20T04:40:00;18.13;;;8.35;;
79631;SDS011;69108;41.120;16.874;2023-12-20T04:47:20;13.45;;;7.45;;
79631;SDS011;69108;41.120;16.874;2023-12-20T04:49:47;14.00;;;7.55;;
79631;SDS011;69108;41.120;16.874;2023-12-20T04:52:14;15.85;;;8.13;;
79631;SDS011;69108;41.120;16.874;2023-12-20T04:54:41;17.58;;;7.75;;
79631;SDS011;69108;41.120;16.874;2023-12-20T04:57:09;14.05;;;7.53;;
79631;SDS011;69108;41.120;16.874;2023-12-20T04:59:36;16.45;;;8.32;;
79631;SDS011;69108;41.120;16.874;2023-12-20T05:02:03;16.60;;;7.53;;
79631;SDS011;69108;41.120;16.874;2023-12-20T05:04:29;14.65;;;7.80;;
79631;SDS011;69108;41.120;16.874;2023-12-20T05:06:56;16.17;;;8.85;;
79631;SDS011;69108;41.120;16.874;2023-12-20T05:09:23;15.93;;;7.95;;
79631;SDS011;69108;41.120;16.874;2023-12-20T05:11:50;17.35;;;8.10;;
79631;SDS011;69108;41.120;16.874;2023-12-20T05:14:18;13.48;;;8.45;;
79631;SDS011;69108;41.120;16.874;2023-12-20T05:16:45;14.45;;;7.45;;
79631;SDS011;69108;41.120;16.874;2023-12-20T05:19:12;16.05;;;8.90;;
79631;SDS011;69108;41.120;16.874;2023-12-20T05:21:39;14.45;;;8.10;;
79631;SDS011;69108;41.120;16.874;2023-12-20T05:24:06;14.10;;;7.80;;
79631;SDS011;69108;41.120;16.874;2023-12-20T05:26:33;16.50;;;8.20;;
79631;SDS011;69108;41.120;16.874;2023-12-20T05:28:59;15.65;;;8.55;;
79631;SDS011;69108;41.120;16.874;2023-12-20T05:31:28;16.65;;;8.95;;
79631;SDS011;69108;41.120;16.874;2023-12-20T05:33:54;17.42;;;9.25;;
79631;SDS011;69108;41.120;16.874;2023-12-20T05:36:21;14.80;;;8.70;;
79631;SDS011;69108;41.120;16.874;2023-12-20T05:38:48;17.77;;;9.60;;
79631;SDS011;69108;41.120;16.874;2023-12-20T05:41:15;17.73;;;9.32;;
79631;SDS011;69108;41.120;16.874;2023-12-20T05:43:42;17.45;;;9.60;;
79631;SDS011;69108;41.120;16.874;2023-12-20T05:46:09;16.63;;;9.50;;
79631;SDS011;69108;41.120;16.874;2023-12-20T05:48:38;18.23;;;9.75;;
79631;SDS011;69108;41.120;16.874;2023-12-20T05:51:04;18.60;;;9.02;;
79631;SDS011;69108;41.120;16.874;2023-12-20T05:53:31;15.50;;;9.85;;
79631;SDS011;69108;41.120;16.874;2023-12-20T05:55:58;19.73;;;8.57;;
79631;SDS011;69108;41.120;16.874;2023-12-20T05:58:25;17.40;;;8.38;;
79631;SDS011;69108;41.120;16.874;2023-12-20T06:00:52;16.10;;;8.73;;
79631;SDS011;69108;41.120;16.874;2023-12-20T06:03:18;16.38;;;9.98;;
79631;SDS011;69108;41.120;16.874;2023-12-20T06:05:46;20.48;;;9.73;;
79631;SDS011;69108;41.120;16.874;2023-12-20T06:10:40;19.60;;;10.93;;
79631;SDS011;69108;41.120;16.874;2023-12-20T06:13:07;15.95;;;8.73;;
79631;SDS011;69108;41.120;16.874;2023-12-20T06:15:35;15.80;;;9.27;;
79631;SDS011;69108;41.120;16.874;2023-12-20T06:18:02;15.75;;;9.73;;
79631;SDS011;69108;41.120;16.874;2023-12-20T06:20:29;17.40;;;9.43;;
79631;SDS011;69108;41.120;16.874;2023-12-20T06:22:57;21.42;;;10.23;;
79631;SDS011;69108;41.120;16.874;2023-12-20T06:25:24;17.50;;;8.82;;
79631;SDS011;69108;41.120;16.874;2023-12-20T06:27:51;15.73;;;8.05;;
79631;SDS011;69108;41.120;16.874;2023-12-20T06:30:18;18.15;;;9.25;;
79631;SDS011;69108;41.120;16.874;2023-12-20T06:32:45;20.10;;;9.75;;
79631;SDS011;69108;41.120;16.874;2023-12-20T06:35:12;17.45;;;9.73;;
79631;SDS011;69108;41.120;16.874;2023-12-20T06:37:39;19.35;;;10.10;;
79631;SDS011;69108;41.120;16.874;2023-12-20T06:40:09;16.98;;;9.10;;
79631;SDS011;69108;41.120;16.874;2023-12-20T06:42:36;21.45;;;11.43;;
79631;SDS011;69108;41.120;16.874;2023-12-20T06:45:03;19.15;;;10.32;;
79631;SDS011;69108;41.120;16.874;2023-12-20T06:47:31;19.23;;;9.82;;
79631;SDS011;69108;41.120;16.874;2023-12-20T06:49:58;18.55;;;9.55;;
79631;SDS011;69108;41.120;16.874;2023-12-20T06:52:24;20.80;;;10.20;;
79631;SDS011;69108;41.120;16.874;2023-12-20T06:54:51;24.42;;;10.63;;
79631;SDS011;69108;41.120;16.874;2023-12-20T06:57:19;22.85;;;9.63;;
79631;SDS011;69108;41.120;16.874;2023-12-20T06:59:46;21.67;;;10.77;;
79631;SDS011;69108;41.120;16.874;2023-12-20T07:02:13;20.70;;;9.63;;
79631;SDS011;69108;41.120;16.874;2023-12-20T07:04:40;20.05;;;10.05;;
79631;SDS011;69108;41.120;16.874;2023-12-20T07:07:07;21.67;;;9.93;;
79631;SDS011;69108;41.120;16.874;2023-12-20T07:09:33;18.83;;;11.07;;
79631;SDS011;69108;41.120;16.874;2023-12-20T07:12:00;17.30;;;9.93;;
79631;SDS011;69108;41.120;16.874;2023-12-20T07:14:28;22.15;;;12.55;;
79631;SDS011;69108;41.120;16.874;2023-12-20T07:16:55;23.30;;;12.13;;
79631;SDS011;69108;41.120;16.874;2023-12-20T07:19:22;23.52;;;12.07;;
79631;SDS011;69108;41.120;16.874;2023-12-20T07:21:49;21.77;;;11.43;;
79631;SDS011;69108;41.120;16.874;2023-12-20T07:24:16;20.27;;;11.50;;
79631;SDS011;69108;41.120;16.874;2023-12-20T07:26:42;21.58;;;12.00;;
79631;SDS011;69108;41.120;16.874;2023-12-20T07:29:09;22.65;;;12.70;;
79631;SDS011;69108;41.120;16.874;2023-12-20T07:31:37;22.35;;;10.95;;
79631;SDS011;69108;41.120;16.874;2023-12-20T07:41:23;20.08;;;11.15;;
79631;SDS011;69108;41.120;16.874;2023-12-20T07:43:50;23.95;;;12.00;;
79631;SDS011;69108;41.120;16.874;2023-12-20T07:46:18;23.13;;;13.27;;
79631;SDS011;69108;41.120;16.874;2023-12-20T07:48:50;28.63;;;14.85;;
79631;SDS011;69108;41.120;16.874;2023-12-20T07:56:15;32.70;;;16.90;;
79631;SDS011;69108;41.120;16.874;2023-12-20T07:58:42;32.03;;;14.35;;
79631;SDS011;69108;41.120;16.874;2023-12-20T08:01:09;29.45;;;15.25;;
79631;SDS011;69108;41.120;16.874;2023-12-20T08:03:36;29.40;;;15.07;;
79631;SDS011;69108;41.120;16.874;2023-12-20T08:06:05;32.20;;;16.30;;
79631;SDS011;69108;41.120;16.874;2023-12-20T08:08:32;28.42;;;15.35;;
79631;SDS011;69108;41.120;16.874;2023-12-20T08:10:58;32.20;;;17.38;;
79631;SDS011;69108;41.120;16.874;2023-12-20T08:13:25;30.85;;;17.92;;
79631;SDS011;69108;41.120;16.874;2023-12-20T08:15:53;27.13;;;14.38;;
79631;SDS011;69108;41.120;16.874;2023-12-20T08:18:21;29.73;;;16.13;;
79631;SDS011;69108;41.120;16.874;2023-12-20T08:20:48;30.42;;;15.38;;
79631;SDS011;69108;41.120;16.874;2023-12-20T08:23:16;32.70;;;15.82;;
79631;SDS011;69108;41.120;16.874;2023-12-20T08:30:36;40.00;;;21.75;;
79631;SDS011;69108;41.120;16.874;2023-12-20T08:33:03;48.10;;;26.88;;
79631;SDS011;69108;41.120;16.874;2023-12-20T08:35:30;38.55;;;22.98;;
79631;SDS011;69108;41.120;16.874;2023-12-20T08:37:57;34.97;;;20.85;;
79631;SDS011;69108;41.120;16.874;2023-12-20T08:40:25;33.55;;;17.88;;
79631;SDS011;69108;41.120;16.874;2023-12-20T08:45:18;28.17;;;16.15;;
79631;SDS011;69108;41.120;16.874;2023-12-20T08:47:45;31.83;;;16.75;;
79631;SDS011;69108;41.120;16.874;2023-12-20T08:50:12;26.85;;;15.35;;
79631;SDS011;69108;41.120;16.874;2023-12-20T08:52:39;24.23;;;15.65;;
79631;SDS011;69108;41.120;16.874;2023-12-20T08:55:07;30.70;;;16.00;;
79631;SDS011;69108;41.120;16.874;2023-12-20T08:57:36;28.25;;;15.38;;
79631;SDS011;69108;41.120;16.874;2023-12-20T09:02:32;24.77;;;14.63;;
79631;SDS011;69108;41.120;16.874;2023-12-20T09:05:01;25.50;;;13.85;;
79631;SDS011;69108;41.120;16.874;2023-12-20T09:07:28;26.00;;;14.43;;
79631;SDS011;69108;41.120;16.874;2023-12-20T09:09:56;22.98;;;14.00;;
79631;SDS011;69108;41.120;16.874;2023-12-20T09:12:24;22.58;;;13.60;;
79631;SDS011;69108;41.120;16.874;2023-12-20T09:14:52;27.70;;;13.40;;
79631;SDS011;69108;41.120;16.874;2023-12-20T09:17:19;25.90;;;13.75;;
79631;SDS011;69108;41.120;16.874;2023-12-20T09:19:48;25.42;;;15.15;;
79631;SDS011;69108;41.120;16.874;2023-12-20T09:22:17;27.40;;;13.40;;
79631;SDS011;69108;41.120;16.874;2023-12-20T09:24:44;18.20;;;11.43;;
79631;SDS011;69108;41.120;16.874;2023-12-20T09:27:11;14.00;;;6.65;;
79631;SDS011;69108;41.120;16.874;2023-12-20T09:29:38;13.57;;;7.78;;
79631;SDS011;69108;41.120;16.874;2023-12-20T09:32:06;12.65;;;7.47;;
79631;SDS011;69108;41.120;16.874;2023-12-20T09:34:33;22.35;;;9.30;;
79631;SDS011;69108;41.120;16.874;2023-12-20T09:37:00;10.52;;;5.05;;
79631;SDS011;69108;41.120;16.874;2023-12-20T09:39:28;12.00;;;6.45;;
79631;SDS011;69108;41.120;16.874;2023-12-20T09:41:59;12.15;;;6.15;;
79631;SDS011;69108;41.120;16.874;2023-12-20T09:44:27;15.60;;;5.95;;
79631;SDS011;69108;41.120;16.874;2023-12-20T09:46:55;12.13;;;5.57;;
79631;SDS011;69108;41.120;16.874;2023-12-20T09:49:23;11.65;;;4.97;;
79631;SDS011;69108;41.120;16.874;2023-12-20T09:51:53;10.85;;;5.05;;
79631;SDS011;69108;41.120;16.874;2023-12-20T09:54:20;16.63;;;5.57;;
79631;SDS011;69108;41.120;16.874;2023-12-20T09:56:48;11.43;;;4.47;;
79631;SDS011;69108;41.120;16.874;2023-12-20T09:59:15;12.85;;;4.38;;
79631;SDS011;69108;41.120;16.874;2023-12-20T10:01:42;10.98;;;5.05;;
79631;SDS011;69108;41.120;16.874;2023-12-20T10:04:09;9.77;;;4.80;;
79631;SDS011;69108;41.120;16.874;2023-12-20T10:06:40;10.82;;;5.03;;
79631;SDS011;69108;41.120;16.874;2023-12-20T10:09:07;8.50;;;4.25;;
79631;SDS011;69108;41.120;16.874;2023-12-20T10:11:35;14.15;;;5.20;;
79631;SDS011;69108;41.120;16.874;2023-12-20T10:14:03;9.77;;;4.35;;
79631;SDS011;69108;41.120;16.874;2023-12-20T10:16:30;13.30;;;4.90;;
79631;SDS011;69108;41.120;16.874;2023-12-20T10:18:58;13.15;;;6.30;;
79631;SDS011;69108;41.120;16.874;2023-12-20T10:21:26;11.25;;;5.85;;
79631;SDS011;69108;41.120;16.874;2023-12-20T10:23:54;8.77;;;4.43;;
79631;SDS011;69108;41.120;16.874;2023-12-20T10:26:22;8.75;;;4.43;;
79631;SDS011;69108;41.120;16.874;2023-12-20T10:31:25;11.77;;;5.47;;
79631;SDS011;69108;41.120;16.874;2023-12-20T10:33:53;9.80;;;4.80;;
79631;SDS011;69108;41.120;16.874;2023-12-20T10:36:22;10.88;;;6.40;;
79631;SDS011;69108;41.120;16.874;2023-12-20T10:38:51;8.77;;;5.07;;
79631;SDS011;69108;41.120;16.874;2023-12-20T10:41:22;9.07;;;5.22;;
79631;SDS011;69108;41.120;16.874;2023-12-20T10:43:52;11.20;;;5.47;;
79631;SDS011;69108;41.120;16.874;2023-12-20T10:46:21;10.10;;;4.97;;
79631;SDS011;69108;41.120;16.874;2023-12-20T10:48:48;11.77;;;4.97;;
79631;SDS011;69108;41.120;16.874;2023-12-20T10:51:18;9.32;;;5.10;;
79631;SDS011;69108;41.120;16.874;2023-12-20T10:53:45;11.20;;;5.47;;
79631;SDS011;69108;41.120;16.874;2023-12-20T10:56:15;13.32;;;6.53;;
79631;SDS011;69108;41.120;16.874;2023-12-20T10:58:44;11.63;;;5.70;;
79631;SDS011;69108;41.120;16.874;2023-12-20T11:01:13;13.65;;;5.78;;
79631;SDS011;69108;41.120;16.874;2023-12-20T11:03:42;12.00;;;6.03;;
79631;SDS011;69108;41.120;16.874;2023-12-20T11:06:14;12.15;;;6.32;;
79631;SDS011;69108;41.120;16.874;2023-12-20T11:08:54;15.32;;;6.70;;
79631;SDS011;69108;41.120;16.874;2023-12-20T11:11:35;12.02;;;5.47;;
79631;SDS011;69108;41.120;16.874;2023-12-20T11:16:40;10.40;;;6.25;;
79631;SDS011;69108;41.120;16.874;2023-12-20T11:19:07;17.35;;;6.47;;
79631;SDS011;69108;41.120;16.874;2023-12-20T11:21:34;11.00;;;6.15;;
79631;SDS011;69108;41.120;16.874;2023-12-20T11:24:01;10.15;;;5.05;;
79631;SDS011;69108;41.120;16.874;2023-12-20T11:26:29;13.38;;;6.43;;
79631;SDS011;69108;41.120;16.874;2023-12-20T11:29:02;10.98;;;5.25;;
79631;SDS011;69108;41.120;16.874;2023-12-20T11:34:56;9.48;;;4.72;;
79631;SDS011;69108;41.120;16.874;2023-12-20T11:37:28;14.00;;;6.90;;
79631;SDS011;69108;41.120;16.874;2023-12-20T11:39:55;10.55;;;5.72;;
79631;SDS011;69108;41.120;16.874;2023-12-20T11:42:27;12.48;;;5.80;;
79631;SDS011;69108;41.120;16.874;2023-12-20T11:44:53;12.73;;;5.95;;
79631;SDS011;69108;41.120;16.874;2023-12-20T11:47:22;14.00;;;5.65;;
79631;SDS011;69108;41.120;16.874;2023-12-20T11:49:50;11.63;;;5.47;;
79631;SDS011;69108;41.120;16.874;2023-12-20T11:52:17;9.20;;;5.13;;
79631;SDS011;69108;41.120;16.874;2023-12-20T11:54:44;13.88;;;6.18;;
79631;SDS011;69108;41.120;16.874;2023-12-20T11:57:10;10.45;;;5.85;;
79631;SDS011;69108;41.120;16.874;2023-12-20T11:59:37;10.05;;;4.78;;
79631;SDS011;69108;41.120;16.874;2023-12-20T12:02:04;16.33;;;6.22;;
79631;SDS011;69108;41.120;16.874;2023-12-20T12:04:31;17.77;;;6.72;;
79631;SDS011;69108;41.120;16.874;2023-12-20T12:06:58;11.82;;;5.55;;
79631;SDS011;69108;41.120;16.874;2023-12-20T12:09:25;11.40;;;5.55;;
79631;SDS011;69108;41.120;16.874;2023-12-20T12:11:51;10.20;;;4.95;;
79631;SDS011;69108;41.120;16.874;2023-12-20T12:14:18;10.75;;;5.40;;
79631;SDS011;69108;41.120;16.874;2023-12-20T12:16:45;11.55;;;5.45;;
79631;SDS011;69108;41.120;16.874;2023-12-20T12:19:19;13.32;;;6.32;;
79631;SDS011;69108;41.120;16.874;2023-12-20T12:21:47;13.45;;;6.18;;
79631;SDS011;69108;41.120;16.874;2023-12-20T12:24:15;8.77;;;4.90;;
79631;SDS011;69108;41.120;16.874;2023-12-20T12:26:49;93.05;;;15.70;;
79631;SDS011;69108;41.120;16.874;2023-12-20T12:29:16;41.05;;;7.75;;
79631;SDS011;69108;41.120;16.874;2023-12-20T12:31:43;11.88;;;5.03;;
79631;SDS011;69108;41.120;16.874;2023-12-20T12:34:10;11.35;;;5.30;;
79631;SDS011;69108;41.120;16.874;2023-12-20T12:36:37;12.65;;;5.82;;
79631;SDS011;69108;41.120;16.874;2023-12-20T12:39:04;13.10;;;5.72;;
79631;SDS011;69108;41.120;16.874;2023-12-20T12:41:32;13.65;;;6.43;;
79631;SDS011;69108;41.120;16.874;2023-12-20T12:43:59;12.95;;;7.13;;
79631;SDS011;69108;41.120;16.874;2023-12-20T12:46:26;13.75;;;5.65;;
79631;SDS011;69108;41.120;16.874;2023-12-20T12:48:53;14.05;;;5.85;;
79631;SDS011;69108;41.120;16.874;2023-12-20T12:51:20;13.05;;;5.50;;
79631;SDS011;69108;41.120;16.874;2023-12-20T12:53:46;10.70;;;4.72;;
79631;SDS011;69108;41.120;16.874;2023-12-20T12:56:12;10.10;;;4.57;;
79631;SDS011;69108;41.120;16.874;2023-12-20T12:58:41;11.07;;;4.78;;
79631;SDS011;69108;41.120;16.874;2023-12-20T13:01:08;12.07;;;5.05;;
79631;SDS011;69108;41.120;16.874;2023-12-20T13:03:35;10.02;;;5.13;;
79631;SDS011;69108;41.120;16.874;2023-12-20T13:06:02;9.35;;;5.90;;
79631;SDS011;69108;41.120;16.874;2023-12-20T13:08:31;12.38;;;6.78;;
79631;SDS011;69108;41.120;16.874;2023-12-20T13:13:26;13.13;;;7.50;;
79631;SDS011;69108;41.120;16.874;2023-12-20T13:15:54;12.15;;;7.45;;
79631;SDS011;69108;41.120;16.874;2023-12-20T13:18:21;11.95;;;6.68;;
79631;SDS011;69108;41.120;16.874;2023-12-20T13:20:48;11.10;;;6.38;;
79631;SDS011;69108;41.120;16.874;2023-12-20T13:23:14;17.05;;;6.97;;
79631;SDS011;69108;41.120;16.874;2023-12-20T13:25:43;11.38;;;6.55;;
79631;SDS011;69108;41.120;16.874;2023-12-20T13:28:10;13.93;;;6.65;;
79631;SDS011;69108;41.120;16.874;2023-12-20T13:30:37;13.20;;;6.13;;
79631;SDS011;69108;41.120;16.874;2023-12-20T13:33:06;9.70;;;5.45;;
79631;SDS011;69108;41.120;16.874;2023-12-20T13:35:33;8.77;;;5.10;;
79631;SDS011;69108;41.120;16.874;2023-12-20T13:38:00;12.85;;;5.28;;
79631;SDS011;69108;41.120;16.874;2023-12-20T13:40:27;10.30;;;5.00;;
79631;SDS011;69108;41.120;16.874;2023-12-20T13:42:54;14.77;;;5.50;;
79631;SDS011;69108;41.120;16.874;2023-12-20T13:45:21;11.82;;;5.70;;
79631;SDS011;69108;41.120;16.874;2023-12-20T13:47:48;10.38;;;4.80;;
79631;SDS011;69108;41.120;16.874;2023-12-20T13:50:17;9.07;;;4.65;;
79631;SDS011;69108;41.120;16.874;2023-12-20T13:52:43;10.63;;;4.47;;
79631;SDS011;69108;41.120;16.874;2023-12-20T13:55:11;10.55;;;4.88;;
79631;SDS011;69108;41.120;16.874;2023-12-20T13:57:38;10.88;;;4.85;;
79631;SDS011;69108;41.120;16.874;2023-12-20T14:00:07;11.95;;;5.22;;
79631;SDS011;69108;41.120;16.874;2023-12-20T14:02:39;9.73;;;4.90;;
79631;SDS011;69108;41.120;16.874;2023-12-20T14:05:07;11.30;;;5.38;;
79631;SDS011;69108;41.120;16.874;2023-12-20T14:07:35;10.90;;;4.35;;
79631;SDS011;69108;41.120;16.874;2023-12-20T14:10:03;8.15;;;4.32;;
79631;SDS011;69108;41.120;16.874;2023-12-20T14:15:00;11.00;;;5.10;;
79631;SDS011;69108;41.120;16.874;2023-12-20T14:17:27;11.70;;;4.68;;
79631;SDS011;69108;41.120;16.874;2023-12-20T14:19:54;11.95;;;4.90;;
79631;SDS011;69108;41.120;16.874;2023-12-20T14:22:21;12.57;;;5.20;;
79631;SDS011;69108;41.120;16.874;2023-12-20T14:24:49;8.57;;;4.63;;
79631;SDS011;69108;41.120;16.874;2023-12-20T14:27:16;16.17;;;5.40;;
79631;SDS011;69108;41.120;16.874;2023-12-20T14:29:42;11.82;;;4.70;;
79631;SDS011;69108;41.120;16.874;2023-12-20T14:32:09;11.90;;;4.72;;
79631;SDS011;69108;41.120;16.874;2023-12-20T14:34:36;11.88;;;4.78;;
79631;SDS011;69108;41.120;16.874;2023-12-20T14:37:03;9.85;;;4.47;;
79631;SDS011;69108;41.120;16.874;2023-12-20T14:39:30;9.27;;;4.97;;
79631;SDS011;69108;41.120;16.874;2023-12-20T14:41:59;13.93;;;5.93;;
79631;SDS011;69108;41.120;16.874;2023-12-20T14:44:25;10.00;;;4.88;;
79631;SDS011;69108;41.120;16.874;2023-12-20T14:46:52;12.65;;;5.47;;
79631;SDS011;69108;41.120;16.874;2023-12-20T14:49:19;9.25;;;4.72;;
79631;SDS011;69108;41.120;16.874;2023-12-20T14:51:46;9.13;;;4.10;;
79631;SDS011;69108;41.120;16.874;2023-12-20T14:54:13;13.68;;;4.60;;
79631;SDS011;69108;41.120;16.874;2023-12-20T14:56:40;10.65;;;4.13;;
79631;SDS011;69108;41.120;16.874;2023-12-20T14:59:08;9.43;;;4.50;;
79631;SDS011;69108;41.120;16.874;2023-12-20T15:01:36;8.02;;;4.65;;
79631;SDS011;69108;41.120;16.874;2023-12-20T15:04:02;12.20;;;4.43;;
79631;SDS011;69108;41.120;16.874;2023-12-20T15:06:30;7.60;;;4.45;;
79631;SDS011;69108;41.120;16.874;2023-12-20T15:08:58;10.52;;;4.90;;
79631;SDS011;69108;41.120;16.874;2023-12-20T15:11:25;11.95;;;5.18;;
79631;SDS011;69108;41.120;16.874;2023-12-20T15:13:52;9.73;;;4.43;;